KORD/ORD METAR and TAF weather

Enter ICAO airport designator
Station Type Date Time Source
KORD METAR 2019/10/23 06:51 UTC NOAA

KORD 230651Z 23010G18KT 10SM CLR 07/M01 A2981 RMK AO2 SLP096 T00671006


Station Type Date Time Source
KORD Decoded METAR 2019/10/23 06:51 UTC NOAA

CHICAGO O'HARE INTERNATIONAL, IL, United States (KORD) 41-59N 087-55W 200M
Oct 23, 2019 - 02:51 AM EDT / 2019.10.23 0651 UTC
Wind: from the SW (230 degrees) at 12 MPH (10 KT) gusting to 21 MPH (18 KT):0
Visibility: 10 mile(s):0
Sky conditions: clear
Temperature: 44.1 F (6.7 C)
Dew Point: 30.9 F (-0.6 C)
Relative Humidity: 59%
Pressure (altimeter): 29.81 in. Hg (1009 hPa)
ob: KORD 230651Z 23010G18KT 10SM CLR 07/M01 A2981 RMK AO2 SLP096 T00671006
cycle: 7

Station Type Date Time Source
KORD TAF 2019/10/23 06:42 UTC NOAA

TAF KORD 230538Z 2306/2412 24011KT P6SM SKC
FM231400 22012G17KT P6SM BKN100
FM231800 19010KT P6SM VCSH BKN080
TEMPO 2319/2322 20015G25KT P6SM -SHRA BKN050 OVC080
FM240000 22010KT P6SM BKN050 WS015/22040KT
FM240400 33012G18KT P6SM SCT015 BKN025

Example: see airport list